Rocky Hill, Texas
Current Conditions -  °F | °C
As of 3:55 PM on Monday 26 Jan 2015 (Local Time) from KCNW Reporting Station
Clear Clear  
Wind Chill: 73°   Ceiling: Unl
Heat Index: 73°   Visibility: 10mi
Dew Point: 36°   Wind: 9mph
Humidity: 25%   Direction: 240°WSW
Pressure: 30.12"   Gusts: NA
Location:  31.3313°N, 96.8629°W
Report Text: KCNW 262155Z 24008KT 10SM SKC 23/02 A3012
Loading
Personal Weather Stations






























Interactive Weather Map New forecast layout! Learn more

10-Day Weather Forecast

Advertisements
Track Severe Weather on mobile